sensor_id;sensor_type;location;lat;lon;timestamp;pressure;altitude;pressure_sealevel;temperature
68952;BMP180;56000;51.146;17.112;2022-09-09T00:01:40;99851.80;;;16.10
68952;BMP180;56000;51.146;17.112;2022-09-09T00:04:25;99849.20;;;16.10
68952;BMP180;56000;51.146;17.112;2022-09-09T00:07:07;99851.80;;;16.02
68952;BMP180;56000;51.146;17.112;2022-09-09T00:09:47;99854.40;;;16.00
68952;BMP180;56000;51.146;17.112;2022-09-09T00:12:27;99857.40;;;16.00
68952;BMP180;56000;51.146;17.112;2022-09-09T00:15:11;99860.20;;;15.90
68952;BMP180;56000;51.146;17.112;2022-09-09T00:17:51;99855.20;;;15.90
68952;BMP180;56000;51.146;17.112;2022-09-09T00:20:28;99856.40;;;15.80
68952;BMP180;56000;51.146;17.112;2022-09-09T00:23:11;99858.60;;;15.80
68952;BMP180;56000;51.146;17.112;2022-09-09T00:25:52;99856.60;;;15.80
68952;BMP180;56000;51.146;17.112;2022-09-09T00:28:28;99852.60;;;15.70
68952;BMP180;56000;51.146;17.112;2022-09-09T00:31:12;99854.20;;;15.70
68952;BMP180;56000;51.146;17.112;2022-09-09T00:33:47;99859.20;;;15.70
68952;BMP180;56000;51.146;17.112;2022-09-09T00:36:23;99861.20;;;15.70
68952;BMP180;56000;51.146;17.112;2022-09-09T00:39:01;99861.80;;;15.70
68952;BMP180;56000;51.146;17.112;2022-09-09T00:41:47;99859.20;;;15.66
68952;BMP180;56000;51.146;17.112;2022-09-09T00:44:32;99857.80;;;15.60
68952;BMP180;56000;51.146;17.112;2022-09-09T00:50:44;99855.00;;;15.60
68952;BMP180;56000;51.146;17.112;2022-09-09T00:53:37;99858.80;;;15.60
68952;BMP180;56000;51.146;17.112;2022-09-09T00:56:18;99856.20;;;15.60
68952;BMP180;56000;51.146;17.112;2022-09-09T00:59:00;99857.40;;;15.60
68952;BMP180;56000;51.146;17.112;2022-09-09T01:01:37;99858.40;;;15.56
68952;BMP180;56000;51.146;17.112;2022-09-09T01:04:15;99859.40;;;15.50
68952;BMP180;56000;51.146;17.112;2022-09-09T01:06:52;99860.20;;;15.50
68952;BMP180;56000;51.146;17.112;2022-09-09T01:09:36;99863.80;;;15.50
68952;BMP180;56000;51.146;17.112;2022-09-09T01:12:16;99863.60;;;15.50
68952;BMP180;56000;51.146;17.112;2022-09-09T01:15:01;99866.40;;;15.50
68952;BMP180;56000;51.146;17.112;2022-09-09T01:17:46;99863.60;;;15.40
68952;BMP180;56000;51.146;17.112;2022-09-09T01:20:25;99869.80;;;15.40
68952;BMP180;56000;51.146;17.112;2022-09-09T01:23:33;99868.20;;;15.40
68952;BMP180;56000;51.146;17.112;2022-09-09T01:26:34;99870.00;;;15.40
68952;BMP180;56000;51.146;17.112;2022-09-09T01:29:15;99868.00;;;15.40
68952;BMP180;56000;51.146;17.112;2022-09-09T01:31:57;99877.60;;;15.40
68952;BMP180;56000;51.146;17.112;2022-09-09T01:34:35;99880.00;;;15.30
68952;BMP180;56000;51.146;17.112;2022-09-09T01:37:10;99880.00;;;15.30
68952;BMP180;56000;51.146;17.112;2022-09-09T01:39:46;99879.60;;;15.30
68952;BMP180;56000;51.146;17.112;2022-09-09T01:42:20;99882.00;;;15.20
68952;BMP180;56000;51.146;17.112;2022-09-09T01:44:53;99881.00;;;15.20
68952;BMP180;56000;51.146;17.112;2022-09-09T01:47:26;99875.80;;;15.10
68952;BMP180;56000;51.146;17.112;2022-09-09T01:50:10;99882.80;;;15.10
68952;BMP180;56000;51.146;17.112;2022-09-09T01:52:45;99878.00;;;15.00
68952;BMP180;56000;51.146;17.112;2022-09-09T01:55:28;99880.60;;;15.00
68952;BMP180;56000;51.146;17.112;2022-09-09T01:58:16;99884.80;;;14.90
68952;BMP180;56000;51.146;17.112;2022-09-09T02:01:02;99886.80;;;14.90
68952;BMP180;56000;51.146;17.112;2022-09-09T02:03:37;99889.80;;;14.90
68952;BMP180;56000;51.146;17.112;2022-09-09T02:06:27;99888.80;;;14.90
68952;BMP180;56000;51.146;17.112;2022-09-09T02:09:12;99885.40;;;14.90
68952;BMP180;56000;51.146;17.112;2022-09-09T02:11:49;99883.60;;;14.80
68952;BMP180;56000;51.146;17.112;2022-09-09T02:14:34;99891.40;;;14.80
68952;BMP180;56000;51.146;17.112;2022-09-09T02:17:11;99893.40;;;14.80
68952;BMP180;56000;51.146;17.112;2022-09-09T02:20:05;99901.20;;;14.70
68952;BMP180;56000;51.146;17.112;2022-09-09T02:22:47;99896.80;;;14.70
68952;BMP180;56000;51.146;17.112;2022-09-09T02:25:26;99897.20;;;14.70
68952;BMP180;56000;51.146;17.112;2022-09-09T02:28:09;99897.60;;;14.74
68952;BMP180;56000;51.146;17.112;2022-09-09T02:30:45;99903.40;;;14.80
68952;BMP180;56000;51.146;17.112;2022-09-09T02:33:20;99901.00;;;14.78
68952;BMP180;56000;51.146;17.112;2022-09-09T02:35:55;99899.60;;;14.78
68952;BMP180;56000;51.146;17.112;2022-09-09T02:38:37;99897.60;;;14.80
68952;BMP180;56000;51.146;17.112;2022-09-09T02:41:13;99903.60;;;14.80
68952;BMP180;56000;51.146;17.112;2022-09-09T02:43:46;99906.20;;;14.80
68952;BMP180;56000;51.146;17.112;2022-09-09T02:46:36;99903.20;;;14.80
68952;BMP180;56000;51.146;17.112;2022-09-09T02:49:18;99908.00;;;14.78
68952;BMP180;56000;51.146;17.112;2022-09-09T02:51:57;99909.20;;;14.72
68952;BMP180;56000;51.146;17.112;2022-09-09T02:54:35;99913.60;;;14.70
68952;BMP180;56000;51.146;17.112;2022-09-09T02:57:19;99920.00;;;14.70
68952;BMP180;56000;51.146;17.112;2022-09-09T02:59:53;99915.00;;;14.70
68952;BMP180;56000;51.146;17.112;2022-09-09T03:02:29;99915.20;;;14.64
68952;BMP180;56000;51.146;17.112;2022-09-09T03:05:07;99912.60;;;14.62
68952;BMP180;56000;51.146;17.112;2022-09-09T03:07:40;99911.20;;;14.60
68952;BMP180;56000;51.146;17.112;2022-09-09T03:10:14;99911.20;;;14.60
68952;BMP180;56000;51.146;17.112;2022-09-09T03:12:47;99913.40;;;14.60
68952;BMP180;56000;51.146;17.112;2022-09-09T03:15:20;99914.60;;;14.50
68952;BMP180;56000;51.146;17.112;2022-09-09T03:17:53;99917.40;;;14.50
68952;BMP180;56000;51.146;17.112;2022-09-09T03:20:26;99922.20;;;14.50
68952;BMP180;56000;51.146;17.112;2022-09-09T03:23:00;99923.80;;;14.40
68952;BMP180;56000;51.146;17.112;2022-09-09T03:25:33;99929.40;;;14.40
68952;BMP180;56000;51.146;17.112;2022-09-09T03:28:07;99930.40;;;14.40
68952;BMP180;56000;51.146;17.112;2022-09-09T03:30:39;99934.40;;;14.30
68952;BMP180;56000;51.146;17.112;2022-09-09T03:33:13;99928.20;;;14.30
68952;BMP180;56000;51.146;17.112;2022-09-09T03:35:49;99928.80;;;14.20
68952;BMP180;56000;51.146;17.112;2022-09-09T03:38:23;99926.40;;;14.20
68952;BMP180;56000;51.146;17.112;2022-09-09T03:40:58;99934.00;;;14.20
68952;BMP180;56000;51.146;17.112;2022-09-09T03:43:32;99933.80;;;14.10
68952;BMP180;56000;51.146;17.112;2022-09-09T03:46:05;99935.00;;;14.10
68952;BMP180;56000;51.146;17.112;2022-09-09T03:48:38;99940.20;;;14.10
68952;BMP180;56000;51.146;17.112;2022-09-09T03:51:11;99937.80;;;14.06
68952;BMP180;56000;51.146;17.112;2022-09-09T03:53:44;99943.60;;;14.00
68952;BMP180;56000;51.146;17.112;2022-09-09T03:56:19;99940.20;;;14.00
68952;BMP180;56000;51.146;17.112;2022-09-09T03:58:53;99940.80;;;14.00
68952;BMP180;56000;51.146;17.112;2022-09-09T04:01:26;99941.00;;;14.00
68952;BMP180;56000;51.146;17.112;2022-09-09T04:04:02;99941.40;;;14.00
68952;BMP180;56000;51.146;17.112;2022-09-09T04:06:35;99944.40;;;14.00
68952;BMP180;56000;51.146;17.112;2022-09-09T04:09:08;99952.00;;;14.00
68952;BMP180;56000;51.146;17.112;2022-09-09T04:11:41;99953.00;;;14.00
68952;BMP180;56000;51.146;17.112;2022-09-09T04:14:14;99950.00;;;14.00
68952;BMP180;56000;51.146;17.112;2022-09-09T04:16:47;99950.00;;;14.00
68952;BMP180;56000;51.146;17.112;2022-09-09T04:19:21;99947.80;;;14.00
68952;BMP180;56000;51.146;17.112;2022-09-09T04:21:54;99947.40;;;14.00
68952;BMP180;56000;51.146;17.112;2022-09-09T04:24:26;99949.20;;;14.00
68952;BMP180;56000;51.146;17.112;2022-09-09T04:27:02;99950.00;;;14.00
68952;BMP180;56000;51.146;17.112;2022-09-09T04:29:35;99952.40;;;14.10
68952;BMP180;56000;51.146;17.112;2022-09-09T04:32:08;99952.00;;;14.10
68952;BMP180;56000;51.146;17.112;2022-09-09T04:34:42;99955.20;;;14.10
68952;BMP180;56000;51.146;17.112;2022-09-09T04:37:16;99953.80;;;14.10
68952;BMP180;56000;51.146;17.112;2022-09-09T04:39:50;99956.20;;;14.10
68952;BMP180;56000;51.146;17.112;2022-09-09T04:42:23;99957.40;;;14.10
68952;BMP180;56000;51.146;17.112;2022-09-09T04:44:57;99961.20;;;14.10
68952;BMP180;56000;51.146;17.112;2022-09-09T04:47:30;99958.60;;;14.10
68952;BMP180;56000;51.146;17.112;2022-09-09T04:50:04;99954.20;;;14.10
68952;BMP180;56000;51.146;17.112;2022-09-09T04:52:38;99953.80;;;14.10
68952;BMP180;56000;51.146;17.112;2022-09-09T04:55:12;99956.00;;;14.10
68952;BMP180;56000;51.146;17.112;2022-09-09T04:57:47;99950.20;;;14.10
68952;BMP180;56000;51.146;17.112;2022-09-09T05:00:20;99953.20;;;14.10
68952;BMP180;56000;51.146;17.112;2022-09-09T05:02:54;99964.80;;;14.20
68952;BMP180;56000;51.146;17.112;2022-09-09T05:05:29;99957.20;;;14.20
68952;BMP180;56000;51.146;17.112;2022-09-09T05:08:06;99957.20;;;14.20
68952;BMP180;56000;51.146;17.112;2022-09-09T05:10:41;99961.40;;;14.28
68952;BMP180;56000;51.146;17.112;2022-09-09T05:13:15;99963.80;;;14.30
68952;BMP180;56000;51.146;17.112;2022-09-09T05:15:56;99970.40;;;14.38
68952;BMP180;56000;51.146;17.112;2022-09-09T05:18:27;99965.20;;;14.50
68952;BMP180;56000;51.146;17.112;2022-09-09T05:21:03;99968.00;;;14.80
68952;BMP180;56000;51.146;17.112;2022-09-09T05:23:36;99976.00;;;14.98
68952;BMP180;56000;51.146;17.112;2022-09-09T05:26:13;99979.60;;;14.94
68952;BMP180;56000;51.146;17.112;2022-09-09T05:28:49;99975.00;;;14.90
68952;BMP180;56000;51.146;17.112;2022-09-09T05:31:23;99974.00;;;14.98
68952;BMP180;56000;51.146;17.112;2022-09-09T05:34:00;99977.20;;;15.00
68952;BMP180;56000;51.146;17.112;2022-09-09T05:36:33;99980.60;;;15.00
68952;BMP180;56000;51.146;17.112;2022-09-09T05:39:06;99981.00;;;15.14
68952;BMP180;56000;51.146;17.112;2022-09-09T05:41:40;99984.00;;;15.18
68952;BMP180;56000;51.146;17.112;2022-09-09T05:44:13;99984.20;;;15.20
68952;BMP180;56000;51.146;17.112;2022-09-09T05:46:47;99986.20;;;15.30
68952;BMP180;56000;51.146;17.112;2022-09-09T05:49:21;99991.20;;;15.40
68952;BMP180;56000;51.146;17.112;2022-09-09T05:51:54;99991.00;;;15.46
68952;BMP180;56000;51.146;17.112;2022-09-09T05:54:27;99985.60;;;15.50
68952;BMP180;56000;51.146;17.112;2022-09-09T05:57:00;99985.20;;;15.60
68952;BMP180;56000;51.146;17.112;2022-09-09T05:59:33;99983.80;;;15.66
68952;BMP180;56000;51.146;17.112;2022-09-09T06:02:07;99981.60;;;15.90
68952;BMP180;56000;51.146;17.112;2022-09-09T06:04:40;99977.80;;;15.90
68952;BMP180;56000;51.146;17.112;2022-09-09T06:07:15;99980.20;;;15.90
68952;BMP180;56000;51.146;17.112;2022-09-09T06:09:48;99984.00;;;15.90
68952;BMP180;56000;51.146;17.112;2022-09-09T06:12:23;99987.60;;;16.00
68952;BMP180;56000;51.146;17.112;2022-09-09T06:14:56;99990.20;;;16.00
68952;BMP180;56000;51.146;17.112;2022-09-09T06:17:29;99985.00;;;16.02
68952;BMP180;56000;51.146;17.112;2022-09-09T06:20:03;99983.80;;;16.10
68952;BMP180;56000;51.146;17.112;2022-09-09T06:22:38;99981.00;;;16.10
68952;BMP180;56000;51.146;17.112;2022-09-09T06:25:12;99979.60;;;16.20
68952;BMP180;56000;51.146;17.112;2022-09-09T06:27:49;99970.20;;;16.24
68952;BMP180;56000;51.146;17.112;2022-09-09T06:30:22;99970.00;;;16.30
68952;BMP180;56000;51.146;17.112;2022-09-09T06:32:56;99973.80;;;16.40
68952;BMP180;56000;51.146;17.112;2022-09-09T06:35:29;99973.60;;;16.46
68952;BMP180;56000;51.146;17.112;2022-09-09T06:38:02;99977.00;;;16.60
68952;BMP180;56000;51.146;17.112;2022-09-09T06:40:35;99978.00;;;16.70
68952;BMP180;56000;51.146;17.112;2022-09-09T06:43:08;99982.80;;;16.90
68952;BMP180;56000;51.146;17.112;2022-09-09T06:45:44;99986.20;;;17.10
68952;BMP180;56000;51.146;17.112;2022-09-09T06:48:25;99992.40;;;17.20
68952;BMP180;56000;51.146;17.112;2022-09-09T06:51:08;99987.80;;;17.20
68952;BMP180;56000;51.146;17.112;2022-09-09T06:53:44;99988.40;;;17.20
68952;BMP180;56000;51.146;17.112;2022-09-09T06:56:26;99991.20;;;17.20
68952;BMP180;56000;51.146;17.112;2022-09-09T06:59:03;99992.80;;;17.20
68952;BMP180;56000;51.146;17.112;2022-09-09T07:01:38;99992.40;;;17.30
68952;BMP180;56000;51.146;17.112;2022-09-09T07:04:14;99989.60;;;17.40
68952;BMP180;56000;51.146;17.112;2022-09-09T07:06:48;99993.80;;;17.60
68952;BMP180;56000;51.146;17.112;2022-09-09T07:09:24;99993.20;;;17.80
68952;BMP180;56000;51.146;17.112;2022-09-09T07:11:58;99993.80;;;18.00
68952;BMP180;56000;51.146;17.112;2022-09-09T07:14:33;99994.00;;;18.20
68952;BMP180;56000;51.146;17.112;2022-09-09T07:17:09;100001.00;;;18.30
68952;BMP180;56000;51.146;17.112;2022-09-09T07:19:44;100002.40;;;18.40
68952;BMP180;56000;51.146;17.112;2022-09-09T07:22:18;99994.20;;;18.60
68952;BMP180;56000;51.146;17.112;2022-09-09T07:24:51;99998.80;;;18.80
68952;BMP180;56000;51.146;17.112;2022-09-09T07:27:24;100002.80;;;19.00
68952;BMP180;56000;51.146;17.112;2022-09-09T07:29:58;100004.20;;;19.20
68952;BMP180;56000;51.146;17.112;2022-09-09T07:32:31;100000.80;;;19.52
68952;BMP180;56000;51.146;17.112;2022-09-09T07:35:07;99999.80;;;19.90
68952;BMP180;56000;51.146;17.112;2022-09-09T07:37:40;99994.60;;;20.10
68952;BMP180;56000;51.146;17.112;2022-09-09T07:40:19;99995.00;;;20.30
68952;BMP180;56000;51.146;17.112;2022-09-09T07:42:53;99993.80;;;20.40
68952;BMP180;56000;51.146;17.112;2022-09-09T07:45:26;99994.60;;;20.50
68952;BMP180;56000;51.146;17.112;2022-09-09T07:48:00;100001.00;;;20.70
68952;BMP180;56000;51.146;17.112;2022-09-09T07:50:33;100006.60;;;20.96
68952;BMP180;56000;51.146;17.112;2022-09-09T07:53:06;100005.00;;;21.18
68952;BMP180;56000;51.146;17.112;2022-09-09T07:55:39;100011.60;;;21.30
68952;BMP180;56000;51.146;17.112;2022-09-09T07:58:12;100013.60;;;21.48
68952;BMP180;56000;51.146;17.112;2022-09-09T08:00:45;100012.80;;;21.50
68952;BMP180;56000;51.146;17.112;2022-09-09T08:03:18;100015.80;;;21.60
68952;BMP180;56000;51.146;17.112;2022-09-09T08:05:53;100013.20;;;21.60
68952;BMP180;56000;51.146;17.112;2022-09-09T08:08:33;100010.80;;;21.60
68952;BMP180;56000;51.146;17.112;2022-09-09T08:11:09;100009.20;;;21.50
68952;BMP180;56000;51.146;17.112;2022-09-09T08:13:44;100008.20;;;21.50
68952;BMP180;56000;51.146;17.112;2022-09-09T08:16:26;100013.40;;;21.60
68952;BMP180;56000;51.146;17.112;2022-09-09T08:19:00;100012.40;;;21.70
68952;BMP180;56000;51.146;17.112;2022-09-09T08:21:36;100009.60;;;22.08
68952;BMP180;56000;51.146;17.112;2022-09-09T08:24:10;100010.60;;;22.42
68952;BMP180;56000;51.146;17.112;2022-09-09T08:26:46;100009.80;;;22.70
68952;BMP180;56000;51.146;17.112;2022-09-09T08:29:21;100005.40;;;23.08
68952;BMP180;56000;51.146;17.112;2022-09-09T08:31:58;100008.60;;;23.46
68952;BMP180;56000;51.146;17.112;2022-09-09T08:34:31;100011.20;;;23.90
68952;BMP180;56000;51.146;17.112;2022-09-09T08:37:07;100003.60;;;24.04
68952;BMP180;56000;51.146;17.112;2022-09-09T08:39:43;100001.00;;;24.30
68952;BMP180;56000;51.146;17.112;2022-09-09T08:42:42;100001.40;;;24.40
68952;BMP180;56000;51.146;17.112;2022-09-09T08:45:53;99994.80;;;24.60
68952;BMP180;56000;51.146;17.112;2022-09-09T08:48:46;99999.40;;;25.02
68952;BMP180;56000;51.146;17.112;2022-09-09T08:51:27;100001.20;;;25.66
68952;BMP180;56000;51.146;17.112;2022-09-09T08:54:03;100003.60;;;25.94
68952;BMP180;56000;51.146;17.112;2022-09-09T08:56:37;100007.00;;;26.00
68952;BMP180;56000;51.146;17.112;2022-09-09T08:59:13;100011.20;;;26.10
68952;BMP180;56000;51.146;17.112;2022-09-09T09:02:02;100014.60;;;26.10
68952;BMP180;56000;51.146;17.112;2022-09-09T09:04:58;100017.80;;;26.10
68952;BMP180;56000;51.146;17.112;2022-09-09T09:07:48;100020.20;;;26.10
68952;BMP180;56000;51.146;17.112;2022-09-09T09:10:42;100017.20;;;26.00
68952;BMP180;56000;51.146;17.112;2022-09-09T09:13:30;100021.40;;;26.74
68952;BMP180;56000;51.146;17.112;2022-09-09T09:16:17;100019.80;;;27.52
68952;BMP180;56000;51.146;17.112;2022-09-09T09:18:54;100021.80;;;28.10
68952;BMP180;56000;51.146;17.112;2022-09-09T09:21:36;100026.00;;;28.08
68952;BMP180;56000;51.146;17.112;2022-09-09T09:24:19;100023.80;;;27.32
68952;BMP180;56000;51.146;17.112;2022-09-09T09:26:54;100023.40;;;27.86
68952;BMP180;56000;51.146;17.112;2022-09-09T09:29:28;100019.40;;;28.28
68952;BMP180;56000;51.146;17.112;2022-09-09T09:32:03;100024.80;;;28.86
68952;BMP180;56000;51.146;17.112;2022-09-09T09:34:36;100023.00;;;28.78
68952;BMP180;56000;51.146;17.112;2022-09-09T09:37:20;100023.00;;;28.72
68952;BMP180;56000;51.146;17.112;2022-09-09T09:40:06;100029.20;;;29.78
68952;BMP180;56000;51.146;17.112;2022-09-09T09:42:50;100027.80;;;30.58
68952;BMP180;56000;51.146;17.112;2022-09-09T09:45:42;100028.60;;;31.32
68952;BMP180;56000;51.146;17.112;2022-09-09T09:48:31;100031.20;;;32.08
68952;BMP180;56000;51.146;17.112;2022-09-09T09:51:10;100020.80;;;32.54
68952;BMP180;56000;51.146;17.112;2022-09-09T09:53:44;100028.80;;;33.20
68952;BMP180;56000;51.146;17.112;2022-09-09T09:56:18;100032.60;;;32.96
68952;BMP180;56000;51.146;17.112;2022-09-09T09:58:59;100029.40;;;32.46
68952;BMP180;56000;51.146;17.112;2022-09-09T10:01:48;100034.40;;;32.40
68952;BMP180;56000;51.146;17.112;2022-09-09T10:04:23;100038.40;;;31.78
68952;BMP180;56000;51.146;17.112;2022-09-09T10:06:58;100034.60;;;31.56
68952;BMP180;56000;51.146;17.112;2022-09-09T10:09:32;100039.20;;;31.28
68952;BMP180;56000;51.146;17.112;2022-09-09T10:12:12;100036.60;;;30.70
68952;BMP180;56000;51.146;17.112;2022-09-09T10:14:55;100030.80;;;30.86
68952;BMP180;56000;51.146;17.112;2022-09-09T10:17:39;100039.60;;;31.32
68952;BMP180;56000;51.146;17.112;2022-09-09T10:20:32;100043.00;;;30.44
68952;BMP180;56000;51.146;17.112;2022-09-09T10:23:18;100040.40;;;30.10
68952;BMP180;56000;51.146;17.112;2022-09-09T10:26:12;100043.00;;;29.92
68952;BMP180;56000;51.146;17.112;2022-09-09T10:32:06;100042.20;;;29.66
68952;BMP180;56000;51.146;17.112;2022-09-09T10:34:56;100048.20;;;30.40
68952;BMP180;56000;51.146;17.112;2022-09-09T10:37:41;100035.20;;;31.06
68952;BMP180;56000;51.146;17.112;2022-09-09T10:40:30;100032.40;;;33.30
68952;BMP180;56000;51.146;17.112;2022-09-09T10:43:16;100028.20;;;35.38
68952;BMP180;56000;51.146;17.112;2022-09-09T10:45:59;100030.80;;;36.98
68952;BMP180;56000;51.146;17.112;2022-09-09T10:48:50;100032.20;;;38.30
68952;BMP180;56000;51.146;17.112;2022-09-09T10:51:36;100028.20;;;37.98
68952;BMP180;56000;51.146;17.112;2022-09-09T10:54:26;100026.80;;;38.76
68952;BMP180;56000;51.146;17.112;2022-09-09T10:57:05;100032.20;;;38.66
68952;BMP180;56000;51.146;17.112;2022-09-09T10:59:45;100026.80;;;38.80
68952;BMP180;56000;51.146;17.112;2022-09-09T11:02:26;100033.40;;;38.32
68952;BMP180;56000;51.146;17.112;2022-09-09T11:05:03;100038.40;;;37.22
68952;BMP180;56000;51.146;17.112;2022-09-09T11:07:42;100038.00;;;35.48
68952;BMP180;56000;51.146;17.112;2022-09-09T11:10:25;100027.80;;;35.18
68952;BMP180;56000;51.146;17.112;2022-09-09T11:13:03;100024.60;;;36.72
68952;BMP180;56000;51.146;17.112;2022-09-09T11:15:41;100029.60;;;38.14
68952;BMP180;56000;51.146;17.112;2022-09-09T11:18:19;100035.40;;;39.24
68952;BMP180;56000;51.146;17.112;2022-09-09T11:20:56;100039.40;;;40.30
68952;BMP180;56000;51.146;17.112;2022-09-09T11:23:39;100040.60;;;41.14
68952;BMP180;56000;51.146;17.112;2022-09-09T11:26:18;100049.00;;;42.02
68952;BMP180;56000;51.146;17.112;2022-09-09T11:32:00;100028.40;;;38.10
68952;BMP180;56000;51.146;17.112;2022-09-09T11:34:49;100033.20;;;38.94
68952;BMP180;56000;51.146;17.112;2022-09-09T11:37:53;100035.40;;;39.86
68952;BMP180;56000;51.146;17.112;2022-09-09T11:40:31;100036.40;;;40.82
68952;BMP180;56000;51.146;17.112;2022-09-09T11:43:10;100040.20;;;41.10
68952;BMP180;56000;51.146;17.112;2022-09-09T11:45:43;100039.20;;;39.94
68952;BMP180;56000;51.146;17.112;2022-09-09T11:48:32;100036.60;;;38.68
68952;BMP180;56000;51.146;17.112;2022-09-09T11:51:12;100033.80;;;36.46
68952;BMP180;56000;51.146;17.112;2022-09-09T11:53:56;100031.40;;;37.06
68952;BMP180;56000;51.146;17.112;2022-09-09T11:56:32;100037.00;;;39.22
68952;BMP180;56000;51.146;17.112;2022-09-09T11:59:19;100041.80;;;40.50
68952;BMP180;56000;51.146;17.112;2022-09-09T12:01:56;100039.60;;;40.30
68952;BMP180;56000;51.146;17.112;2022-09-09T12:04:37;100045.80;;;40.56
68952;BMP180;56000;51.146;17.112;2022-09-09T12:07:32;100040.60;;;39.78
68952;BMP180;56000;51.146;17.112;2022-09-09T12:10:23;100043.80;;;39.80
68952;BMP180;56000;51.146;17.112;2022-09-09T12:13:09;100040.20;;;39.00
68952;BMP180;56000;51.146;17.112;2022-09-09T12:15:52;100041.40;;;37.36
68952;BMP180;56000;51.146;17.112;2022-09-09T12:18:31;100045.80;;;35.90
68952;BMP180;56000;51.146;17.112;2022-09-09T12:21:12;100045.80;;;34.80
68952;BMP180;56000;51.146;17.112;2022-09-09T12:23:52;100038.60;;;33.78
68952;BMP180;56000;51.146;17.112;2022-09-09T12:26:34;100042.80;;;33.04
68952;BMP180;56000;51.146;17.112;2022-09-09T12:29:21;100034.60;;;32.32
68952;BMP180;56000;51.146;17.112;2022-09-09T12:32:04;100036.00;;;32.70
68952;BMP180;56000;51.146;17.112;2022-09-09T12:34:42;100038.20;;;32.80
68952;BMP180;56000;51.146;17.112;2022-09-09T12:37:27;100035.80;;;33.18
68952;BMP180;56000;51.146;17.112;2022-09-09T12:40:04;100023.40;;;34.44
68952;BMP180;56000;51.146;17.112;2022-09-09T12:42:42;100022.80;;;35.12
68952;BMP180;56000;51.146;17.112;2022-09-09T12:45:21;100024.40;;;35.76
68952;BMP180;56000;51.146;17.112;2022-09-09T12:47:58;100026.80;;;36.40
68952;BMP180;56000;51.146;17.112;2022-09-09T12:50:34;100020.40;;;36.10
68952;BMP180;56000;51.146;17.112;2022-09-09T12:53:14;100033.00;;;35.36
68952;BMP180;56000;51.146;17.112;2022-09-09T12:56:00;100038.40;;;35.00
68952;BMP180;56000;51.146;17.112;2022-09-09T12:58:35;100046.00;;;35.20
68952;BMP180;56000;51.146;17.112;2022-09-09T13:01:23;100042.80;;;34.60
68952;BMP180;56000;51.146;17.112;2022-09-09T13:03:57;100027.40;;;33.66
68952;BMP180;56000;51.146;17.112;2022-09-09T13:06:31;100024.20;;;32.66
68952;BMP180;56000;51.146;17.112;2022-09-09T13:09:05;100022.80;;;32.50
68952;BMP180;56000;51.146;17.112;2022-09-09T13:11:43;100033.80;;;31.96
68952;BMP180;56000;51.146;17.112;2022-09-09T13:14:22;100033.00;;;31.12
68952;BMP180;56000;51.146;17.112;2022-09-09T13:17:01;100027.60;;;30.92
68952;BMP180;56000;51.146;17.112;2022-09-09T13:19:38;100028.40;;;31.22
68952;BMP180;56000;51.146;17.112;2022-09-09T13:22:22;100024.60;;;31.08
68952;BMP180;56000;51.146;17.112;2022-09-09T13:25:13;100012.80;;;31.54
68952;BMP180;56000;51.146;17.112;2022-09-09T13:28:04;100006.40;;;33.60
68952;BMP180;56000;51.146;17.112;2022-09-09T13:30:38;99999.60;;;35.90
68952;BMP180;56000;51.146;17.112;2022-09-09T13:33:28;99998.40;;;37.78
68952;BMP180;56000;51.146;17.112;2022-09-09T13:36:03;100010.20;;;38.68
68952;BMP180;56000;51.146;17.112;2022-09-09T13:38:40;100003.40;;;39.82
68952;BMP180;56000;51.146;17.112;2022-09-09T13:41:25;100009.20;;;40.76
68952;BMP180;56000;51.146;17.112;2022-09-09T13:43:58;100009.40;;;40.48
68952;BMP180;56000;51.146;17.112;2022-09-09T13:46:35;100007.60;;;39.70
68952;BMP180;56000;51.146;17.112;2022-09-09T13:49:23;100004.20;;;38.54
68952;BMP180;56000;51.146;17.112;2022-09-09T13:52:09;99996.00;;;37.50
68952;BMP180;56000;51.146;17.112;2022-09-09T13:54:46;99992.00;;;38.26
68952;BMP180;56000;51.146;17.112;2022-09-09T13:57:21;99992.60;;;39.00
68952;BMP180;56000;51.146;17.112;2022-09-09T14:00:13;99996.20;;;38.10
68952;BMP180;56000;51.146;17.112;2022-09-09T14:02:46;99990.20;;;37.40
68952;BMP180;56000;51.146;17.112;2022-09-09T14:05:20;99998.00;;;36.34
68952;BMP180;56000;51.146;17.112;2022-09-09T14:07:53;99991.60;;;35.70
68952;BMP180;56000;51.146;17.112;2022-09-09T14:10:26;99998.00;;;35.10
68952;BMP180;56000;51.146;17.112;2022-09-09T14:13:01;99997.60;;;34.90
68952;BMP180;56000;51.146;17.112;2022-09-09T14:15:33;99998.00;;;34.80
68952;BMP180;56000;51.146;17.112;2022-09-09T14:18:08;99993.60;;;34.84
68952;BMP180;56000;51.146;17.112;2022-09-09T14:20:41;99993.40;;;34.90
68952;BMP180;56000;51.146;17.112;2022-09-09T14:23:28;99993.00;;;34.90
68952;BMP180;56000;51.146;17.112;2022-09-09T14:26:14;99994.60;;;35.06
68952;BMP180;56000;51.146;17.112;2022-09-09T14:28:48;99995.60;;;34.70
68952;BMP180;56000;51.146;17.112;2022-09-09T14:31:28;99999.00;;;33.86
68952;BMP180;56000;51.146;17.112;2022-09-09T14:34:02;100001.40;;;32.78
68952;BMP180;56000;51.146;17.112;2022-09-09T14:36:34;100002.80;;;32.40
68952;BMP180;56000;51.146;17.112;2022-09-09T14:39:07;100004.00;;;32.40
68952;BMP180;56000;51.146;17.112;2022-09-09T14:41:40;100004.20;;;32.30
68952;BMP180;56000;51.146;17.112;2022-09-09T14:44:12;100002.80;;;32.64
68952;BMP180;56000;51.146;17.112;2022-09-09T14:46:47;99993.40;;;32.96
68952;BMP180;56000;51.146;17.112;2022-09-09T14:49:21;99995.00;;;33.10
68952;BMP180;56000;51.146;17.112;2022-09-09T14:51:54;99993.60;;;33.40
68952;BMP180;56000;51.146;17.112;2022-09-09T14:54:27;99990.20;;;33.60
68952;BMP180;56000;51.146;17.112;2022-09-09T14:57:00;99988.00;;;33.62
68952;BMP180;56000;51.146;17.112;2022-09-09T14:59:33;99985.40;;;32.76
68952;BMP180;56000;51.146;17.112;2022-09-09T15:02:09;99981.20;;;32.00
68952;BMP180;56000;51.146;17.112;2022-09-09T15:04:42;99979.80;;;31.60